Aérodrome :
LOGIN :

S'inscrire | Disclaimer

   EN    FR    IT 

 










Légende :    VFR   VFR Marginal   IFR   IFR Intensif   IFR Très Intensif
Visi : 
Plafond : 
>= 8 km
>= 3000ft
5 à 8 km
1000 à 3000 ft
1500m à 5 km
500 à 1000 ft
800 à 1500m
200 à 500 ft
< 800m
< 200 ft
Symboles :   Orages  Brouillard  Fortes neiges  Fortes précipitations  Vent > 20 kt
SIGMETs :   Divers  Orages  Givrage  Turbulence  Onde Orograph.  Cendres Volcan.







- Altitude de l'aérodrome : 74 ft
- Code IATA : EIN


EHEH - Eindhoven

DERNIER METAR :
  • 171025Z AUTO 16008KT 130V200 9999 OVC260 11/03 Q1020 BLU 17008KT CAVOK

METARs EXPIRÉS :
  • 170955Z AUTO 16007KT 140V210 9999 BKN260 OVC340 10/03 Q1021 BLU 17008KT CAVOK
  • 170925Z AUTO 15007KT 120V260 9999 OVC240 08/02 Q1021 BLU 17008KT CAVOK
  • 170855Z AUTO 16007KT 130V220 9999 OVC240 06/02 Q1021 BLU 17008KT CAVOK
  • 170825Z AUTO 15006KT 070V230 9999 OVC230 04/02 Q1021 BLU 14004KT CAVOK
  • 170755Z AUTO 14004KT 120V200 9999 OVC240 02/00 Q1021 BLU 14004KT CAVOK

TAF TAF EHEH
Valide du 17 à 06h jusqu'au 18 à 12h UTC


170512Z 1706/1812 VRB02KT CAVOK
PROB30 1706/1708 3500 BR MIFG
BECMG 1706/1709 18007KT
Pas de NOTAMs connus pour ce terrain.



MET'MAP, la Météo Aéronautique d'un coup d'oeil ! - Copyright ORBIFLY Décembre 2007 - Disclaimer

ORBIFLY MET'MAP TEAM :

Programmation & Développement : Alexandra Zaïnal
Conception & Développement : Baudouin d'Aumeries
Co-Programmation & Développement : Marc-Olivier Méhu
Soutien technique & logistique : Manuel Goepfert

Contact : metmap@orbifly.com




SOURCES & CREDITS :

   NOAA